McAllen, TX

9:14 PM CDT en Septiembre 02, 2014 (GMT -0500)
McAllen Miller International | Change Station
CLOSE
Current Station
Aeropuerto
Location: McAllen,
Altura: 105 ft
Estaciones meteorológicas cercanas

Alt 105 ft 26.18 °N, 98.24 °W | Updated 21 minutes ago

Mostly Cloudy
Muy nublado
83 ° F
Sensación térmica 89 ° F
N
10
Viento Variable Viento desde ESE

Hoy
Alta -- | Baja -- ° F
--% Posibilidad de precipitaciones
Ayer
Alta -- | Baja -- ° F
Precip. -- pul
7:13 AM 7:51 PM
Cuarto creciente, 57% visible
Presión 29.87 pul
Visibilidad 10.0 Millas
Nubes Nubes dispersas 2800 ft
Muy nublado 3700 ft
Índice de calor 89 ° F
Punto de rocío 74 ° F
Humedad 74%
Precipitaciones 0.04 pul
Espesor de la nieve No disponible.
UV 0 de una escala de 12
Polen 8.80 de una escala de 12
Ozono Buena
PM2.5 Buena
Flu Activity No disponible.
METAR KMFE 030153Z 12009KT 10SM SCT028 BKN037 28/23 A2987 RMK AO2 SLP114 T02830233

More Conditions Fewer Conditions

Presión 29.87 pul
Visibilidad 10.0 Millas
Nubes Nubes dispersas 2800 ft
Muy nublado 3700 ft
Índice de calor 89 ° F
Punto de rocío 74 ° F
Humedad 74%
Precipitaciones 0.04 pul
Espesor de la nieve No disponible.
UV 0 de una escala de 12
Polen 8.80 de una escala de 12
Ozono Buena
PM2.5 Buena
Flu Activity No disponible.
METAR KMFE 030153Z 12009KT 10SM SCT028 BKN037 28/23 A2987 RMK AO2 SLP114 T02830233

More Conditions Fewer Conditions

Nowcast | as of 7:02 PM CDT on September 2, 2014

Through 9 PM...isolated showers...associated with Tropical Storm Dolly will continue to develop and west northwest across sections of the mid and coastal counties. Brief light to moderate rain can be expected with amounts generally of one tenth of an inch or less.

×

10-Day Weather Forecast

Almanac

Astronomía

Sep. 02, 2014 Salida Puesta
Hora real 7:13 AM CDT 7:51 PM CDT
Crepúsculo civil 6:49 AM CDT 8:14 PM CDT
Crepúsculo náutico 6:22 AM CDT 8:42 PM CDT
Crepúsculo astronómico 5:54 AM CDT 9:10 PM CDT
Luna 2:18 PM CDT (9/2) 12:33 AM CDT (9/2)
Horas de luz 13h 24m
Horas de luz
12h 37m
Tomorrow will be 1m 29s shorter.
Cuarto creciente, 57% of the Moon is Illuminated
Hoy
Cuarto creciente
Sep 8
Luna llena
Sep 15
Cuarto menguante
Sep 24
Nueva
Oct 1
Cuarto creciente

Extremos de hoy

Máximos del estado Bajos del estado

Community

WunderPhotos

Upload Photos

1,749,841 ¡fotos cargadas!

Nearby

Calidad del aire

  Calidad del aire Índice AQ Contaminante
Ayer Buena
PM2.5
Ayer Buena
OZONE
Real Buena
PM2.5
Real Buena
OZONE
Martes Buena
PM10
Martes Buena
OZONE
Miércoles Buena
PM10
Miércoles Buena
OZONE
Jueves Buena
PM10
Jueves Buena
OZONE

Grosos de nieve

Estación Profundido Altura
No tenemos constancia de nieve nueva.

Actividad de terremotos

Ciudad Distance Mag. Tiempo y dato
No hay informes recientes de la actividad sísmica.
Magnitud mínima muestra es 2,5.

Temperaturas de aguas costeras

Lugar Temperatura
Sin partes meteorológicos de las estaciones

Estaciones meteorológicas cercanas